KPIT/PIT METAR and TAF weather

Enter ICAO airport designator
Station Type Date Time Source
KPIT METAR 2022/05/24 11:51 UTC NOAA

KPIT 241151Z 07008KT 10SM SCT100 BKN250 12/09 A3019 RMK AO2 SLP228 70001 T01220089 10133 20100 53015


Station Type Date Time Source
KPIT Decoded METAR 2022/05/24 11:51 UTC NOAA

GREATER PITTSBURGH INTERNATIONAL , PA, United States (KPIT) 40-29N 80-14W 357M
May 24, 2022 - 07:51 AM EDT / 2022.05.24 1151 UTC
Wind: from the ENE (070 degrees) at 9 MPH (8 KT):0
Visibility: 10 mile(s):0
Sky conditions: mostly cloudy
Temperature: 54.0 F (12.2 C)
Dew Point: 48.0 F (8.9 C)
Relative Humidity: 80%
Pressure (altimeter): 30.19 in. Hg (1022 hPa)
Pressure tendency: 0.04 inches (1.5 hPa) higher than three hours ago
ob: KPIT 241151Z 07008KT 10SM SCT100 BKN250 12/09 A3019 RMK AO2 SLP228 70001 T01220089 10133 20100 53015
cycle: 12

Station Type Date Time Source
KPIT TAF 2022/05/24 12:36 UTC NOAA

TAF KPIT 241133Z 2412/2518 05005KT P6SM SCT100
FM241700 09006KT P6SM BKN035
FM250000 09007KT P6SM BKN045

Example: see airport list